sensor_id;sensor_type;location;lat;lon;timestamp;pressure;altitude;pressure_sealevel;temperature;humidity
12879;BME280;20617;49.476;10.986;2022-08-19T00:01:33;97602.56;;;22.81;68.76
12879;BME280;20617;49.476;10.986;2022-08-19T00:03:39;97597.91;;;22.83;68.67
12879;BME280;20617;49.476;10.986;2022-08-19T00:05:43;97595.84;;;22.95;68.27
12879;BME280;20617;49.476;10.986;2022-08-19T00:07:48;97583.72;;;22.92;68.59
12879;BME280;20617;49.476;10.986;2022-08-19T00:09:56;97588.34;;;22.90;68.17
12879;BME280;20617;49.476;10.986;2022-08-19T00:12:01;97597.47;;;22.88;68.48
12879;BME280;20617;49.476;10.986;2022-08-19T00:14:08;97593.47;;;22.83;68.54
12879;BME280;20617;49.476;10.986;2022-08-19T00:16:14;97586.75;;;22.71;68.71
12879;BME280;20617;49.476;10.986;2022-08-19T00:18:26;97585.47;;;22.75;68.41
12879;BME280;20617;49.476;10.986;2022-08-19T00:20:31;97587.28;;;22.75;68.67
12879;BME280;20617;49.476;10.986;2022-08-19T00:22:36;97585.16;;;22.78;68.40
12879;BME280;20617;49.476;10.986;2022-08-19T00:24:43;97584.91;;;22.72;68.54
12879;BME280;20617;49.476;10.986;2022-08-19T00:26:55;97580.09;;;22.67;68.95
12879;BME280;20617;49.476;10.986;2022-08-19T00:29:21;97577.41;;;22.59;69.07
12879;BME280;20617;49.476;10.986;2022-08-19T00:31:26;97572.78;;;22.61;68.88
12879;BME280;20617;49.476;10.986;2022-08-19T00:33:33;97575.47;;;22.69;68.66
12879;BME280;20617;49.476;10.986;2022-08-19T00:35:38;97580.81;;;22.77;68.31
12879;BME280;20617;49.476;10.986;2022-08-19T00:37:43;97580.50;;;22.80;67.98
12879;BME280;20617;49.476;10.986;2022-08-19T00:39:48;97576.53;;;22.85;67.75
12879;BME280;20617;49.476;10.986;2022-08-19T00:41:55;97587.16;;;22.85;68.00
12879;BME280;20617;49.476;10.986;2022-08-19T00:44:03;97588.81;;;22.86;67.81
12879;BME280;20617;49.476;10.986;2022-08-19T00:46:09;97587.31;;;22.83;68.00
12879;BME280;20617;49.476;10.986;2022-08-19T00:48:14;97585.78;;;22.80;67.99
12879;BME280;20617;49.476;10.986;2022-08-19T00:50:21;97593.75;;;22.80;67.88
12879;BME280;20617;49.476;10.986;2022-08-19T00:52:29;97602.56;;;22.81;68.26
12879;BME280;20617;49.476;10.986;2022-08-19T00:54:37;97603.88;;;22.77;68.22
12879;BME280;20617;49.476;10.986;2022-08-19T00:56:43;97616.66;;;22.81;68.04
12879;BME280;20617;49.476;10.986;2022-08-19T00:58:52;97617.00;;;22.78;68.15
12879;BME280;20617;49.476;10.986;2022-08-19T01:00:59;97613.19;;;22.81;68.07
12879;BME280;20617;49.476;10.986;2022-08-19T01:03:05;97611.88;;;22.85;68.01
12879;BME280;20617;49.476;10.986;2022-08-19T01:05:14;97602.75;;;22.88;67.50
12879;BME280;20617;49.476;10.986;2022-08-19T01:07:20;97607.16;;;22.97;67.57
12879;BME280;20617;49.476;10.986;2022-08-19T01:09:25;97612.63;;;22.95;66.96
12879;BME280;20617;49.476;10.986;2022-08-19T01:11:30;97609.81;;;22.97;67.00
12879;BME280;20617;49.476;10.986;2022-08-19T01:13:37;97619.97;;;23.01;67.31
12879;BME280;20617;49.476;10.986;2022-08-19T01:15:57;97614.69;;;23.10;66.74
12879;BME280;20617;49.476;10.986;2022-08-19T01:18:06;97621.28;;;23.05;66.54
12879;BME280;20617;49.476;10.986;2022-08-19T01:20:15;97617.31;;;23.01;66.92
12879;BME280;20617;49.476;10.986;2022-08-19T01:22:28;97622.44;;;23.03;67.15
12879;BME280;20617;49.476;10.986;2022-08-19T01:24:35;97618.31;;;23.09;66.71
12879;BME280;20617;49.476;10.986;2022-08-19T01:26:50;97620.34;;;23.15;66.74
12879;BME280;20617;49.476;10.986;2022-08-19T01:28:58;97620.34;;;23.15;66.57
12879;BME280;20617;49.476;10.986;2022-08-19T01:31:07;97614.56;;;23.19;66.38
12879;BME280;20617;49.476;10.986;2022-08-19T01:33:28;97609.63;;;23.24;66.31
12879;BME280;20617;49.476;10.986;2022-08-19T01:35:35;97617.91;;;23.30;66.07
12879;BME280;20617;49.476;10.986;2022-08-19T01:37:49;97621.91;;;23.34;65.98
12879;BME280;20617;49.476;10.986;2022-08-19T01:39:54;97621.25;;;23.32;65.83
12879;BME280;20617;49.476;10.986;2022-08-19T01:41:59;97623.75;;;23.33;65.75
12879;BME280;20617;49.476;10.986;2022-08-19T01:44:06;97627.88;;;23.36;65.63
12879;BME280;20617;49.476;10.986;2022-08-19T01:46:19;97625.88;;;23.30;66.09
12879;BME280;20617;49.476;10.986;2022-08-19T01:48:26;97623.50;;;23.10;66.77
12879;BME280;20617;49.476;10.986;2022-08-19T01:50:33;97634.97;;;22.93;67.54
12879;BME280;20617;49.476;10.986;2022-08-19T01:52:39;97636.59;;;22.86;67.99
12879;BME280;20617;49.476;10.986;2022-08-19T01:54:47;97637.41;;;22.86;68.00
12879;BME280;20617;49.476;10.986;2022-08-19T01:56:53;97642.56;;;22.88;68.26
12879;BME280;20617;49.476;10.986;2022-08-19T01:59:02;97644.59;;;22.68;68.70
12879;BME280;20617;49.476;10.986;2022-08-19T02:01:08;97642.25;;;22.65;68.77
12879;BME280;20617;49.476;10.986;2022-08-19T02:03:13;97643.78;;;22.67;68.95
12879;BME280;20617;49.476;10.986;2022-08-19T02:05:18;97635.31;;;22.64;68.79
12879;BME280;20617;49.476;10.986;2022-08-19T02:07:23;97633.28;;;22.57;69.15
12879;BME280;20617;49.476;10.986;2022-08-19T02:09:30;97628.50;;;22.61;69.11
12879;BME280;20617;49.476;10.986;2022-08-19T02:11:38;97624.16;;;22.60;69.10
12879;BME280;20617;49.476;10.986;2022-08-19T02:13:43;97622.34;;;22.60;68.76
12879;BME280;20617;49.476;10.986;2022-08-19T02:15:48;97627.50;;;22.62;68.72
12879;BME280;20617;49.476;10.986;2022-08-19T02:17:53;97636.28;;;22.63;68.77
12879;BME280;20617;49.476;10.986;2022-08-19T02:19:58;97637.47;;;22.68;68.51
12879;BME280;20617;49.476;10.986;2022-08-19T02:22:03;97655.28;;;22.76;68.31
12879;BME280;20617;49.476;10.986;2022-08-19T02:24:08;97663.75;;;22.79;68.04
12879;BME280;20617;49.476;10.986;2022-08-19T02:26:14;97667.59;;;22.85;67.54
12879;BME280;20617;49.476;10.986;2022-08-19T02:28:22;97677.72;;;22.81;67.95
12879;BME280;20617;49.476;10.986;2022-08-19T02:30:27;97671.41;;;22.82;67.83
12879;BME280;20617;49.476;10.986;2022-08-19T02:32:32;97670.94;;;22.87;67.56
12879;BME280;20617;49.476;10.986;2022-08-19T02:34:45;97671.47;;;22.91;67.70
12879;BME280;20617;49.476;10.986;2022-08-19T02:36:51;97670.03;;;22.96;67.35
12879;BME280;20617;49.476;10.986;2022-08-19T02:38:56;97670.53;;;23.00;66.85
12879;BME280;20617;49.476;10.986;2022-08-19T02:41:00;97671.75;;;23.05;66.82
12879;BME280;20617;49.476;10.986;2022-08-19T02:43:07;97669.56;;;23.01;67.07
12879;BME280;20617;49.476;10.986;2022-08-19T02:45:15;97684.69;;;23.09;66.68
12879;BME280;20617;49.476;10.986;2022-08-19T02:47:20;97695.50;;;23.07;66.64
12879;BME280;20617;49.476;10.986;2022-08-19T02:49:25;97701.44;;;23.01;67.05
12879;BME280;20617;49.476;10.986;2022-08-19T02:51:37;97686.47;;;23.00;66.81
12879;BME280;20617;49.476;10.986;2022-08-19T02:53:43;97686.66;;;22.98;67.01
12879;BME280;20617;49.476;10.986;2022-08-19T02:55:48;97682.84;;;23.01;67.16
12879;BME280;20617;49.476;10.986;2022-08-19T02:57:53;97678.06;;;23.04;66.84
12879;BME280;20617;49.476;10.986;2022-08-19T02:59:58;97674.03;;;23.00;67.06
12879;BME280;20617;49.476;10.986;2022-08-19T03:02:06;97679.69;;;23.05;66.80
12879;BME280;20617;49.476;10.986;2022-08-19T03:04:12;97684.19;;;23.05;66.70
12879;BME280;20617;49.476;10.986;2022-08-19T03:06:18;97682.22;;;23.07;66.82
12879;BME280;20617;49.476;10.986;2022-08-19T03:08:24;97683.88;;;23.08;66.81
12879;BME280;20617;49.476;10.986;2022-08-19T03:10:29;97677.72;;;23.08;66.74
12879;BME280;20617;49.476;10.986;2022-08-19T03:12:35;97670.22;;;23.03;66.77
12879;BME280;20617;49.476;10.986;2022-08-19T03:14:40;97675.91;;;23.08;66.77
12879;BME280;20617;49.476;10.986;2022-08-19T03:16:48;97661.13;;;23.05;66.79
12879;BME280;20617;49.476;10.986;2022-08-19T03:18:56;97662.13;;;23.04;66.75
12879;BME280;20617;49.476;10.986;2022-08-19T03:21:03;97663.78;;;23.05;66.78
12879;BME280;20617;49.476;10.986;2022-08-19T03:23:13;97653.00;;;23.07;66.71
12879;BME280;20617;49.476;10.986;2022-08-19T03:25:19;97659.28;;;23.06;66.38
12879;BME280;20617;49.476;10.986;2022-08-19T03:27:24;97657.47;;;23.07;66.43
12879;BME280;20617;49.476;10.986;2022-08-19T03:29:37;97656.63;;;23.06;66.55
12879;BME280;20617;49.476;10.986;2022-08-19T03:31:44;97653.66;;;23.01;66.18
12879;BME280;20617;49.476;10.986;2022-08-19T03:33:56;97649.81;;;23.03;66.31
12879;BME280;20617;49.476;10.986;2022-08-19T03:36:06;97643.69;;;23.03;65.83
12879;BME280;20617;49.476;10.986;2022-08-19T03:38:12;97638.69;;;23.00;65.85
12879;BME280;20617;49.476;10.986;2022-08-19T03:40:17;97632.88;;;22.96;65.76
12879;BME280;20617;49.476;10.986;2022-08-19T03:42:22;97629.91;;;22.99;65.45
12879;BME280;20617;49.476;10.986;2022-08-19T03:44:34;97628.69;;;22.94;66.07
12879;BME280;20617;49.476;10.986;2022-08-19T03:46:39;97626.97;;;22.85;66.08
12879;BME280;20617;49.476;10.986;2022-08-19T03:48:45;97632.41;;;22.75;66.42
12879;BME280;20617;49.476;10.986;2022-08-19T03:50:53;97635.19;;;22.73;66.43
12879;BME280;20617;49.476;10.986;2022-08-19T03:52:59;97641.06;;;22.59;67.07
12879;BME280;20617;49.476;10.986;2022-08-19T03:55:05;97639.16;;;22.43;67.84
12879;BME280;20617;49.476;10.986;2022-08-19T03:57:10;97633.25;;;22.31;68.08
12879;BME280;20617;49.476;10.986;2022-08-19T03:59:15;97626.56;;;22.27;68.38
12879;BME280;20617;49.476;10.986;2022-08-19T04:01:23;97620.31;;;22.28;68.64
12879;BME280;20617;49.476;10.986;2022-08-19T04:03:35;97616.66;;;22.29;68.46
12879;BME280;20617;49.476;10.986;2022-08-19T04:05:40;97618.63;;;22.27;68.64
12879;BME280;20617;49.476;10.986;2022-08-19T04:07:48;97618.25;;;22.22;68.59
12879;BME280;20617;49.476;10.986;2022-08-19T04:09:53;97621.44;;;22.26;68.61
12879;BME280;20617;49.476;10.986;2022-08-19T04:11:58;97620.31;;;22.28;68.56
12879;BME280;20617;49.476;10.986;2022-08-19T04:14:03;97615.66;;;22.30;68.12
12879;BME280;20617;49.476;10.986;2022-08-19T04:16:08;97628.00;;;22.22;68.12
12879;BME280;20617;49.476;10.986;2022-08-19T04:18:13;97627.50;;;22.18;68.25
12879;BME280;20617;49.476;10.986;2022-08-19T04:20:19;97633.38;;;22.12;68.25
12879;BME280;20617;49.476;10.986;2022-08-19T04:22:24;97642.66;;;22.26;67.90
12879;BME280;20617;49.476;10.986;2022-08-19T04:24:32;97646.72;;;22.38;67.45
12879;BME280;20617;49.476;10.986;2022-08-19T04:26:38;97648.44;;;22.47;66.56
12879;BME280;20617;49.476;10.986;2022-08-19T04:28:43;97654.34;;;22.59;66.30
12879;BME280;20617;49.476;10.986;2022-08-19T04:30:48;97654.72;;;22.64;65.94
12879;BME280;20617;49.476;10.986;2022-08-19T04:32:53;97652.44;;;22.69;65.76
12879;BME280;20617;49.476;10.986;2022-08-19T04:34:58;97656.72;;;22.70;65.50
12879;BME280;20617;49.476;10.986;2022-08-19T04:37:20;97660.28;;;22.79;64.95
12879;BME280;20617;49.476;10.986;2022-08-19T04:39:29;97669.75;;;22.81;65.22
12879;BME280;20617;49.476;10.986;2022-08-19T04:41:50;97677.84;;;22.80;64.97
12879;BME280;20617;49.476;10.986;2022-08-19T04:44:07;97688.31;;;22.81;65.03
12879;BME280;20617;49.476;10.986;2022-08-19T04:46:12;97678.09;;;22.87;64.69
12879;BME280;20617;49.476;10.986;2022-08-19T04:48:38;97684.53;;;22.84;64.73
12879;BME280;20617;49.476;10.986;2022-08-19T04:50:50;97694.72;;;22.71;65.00
12879;BME280;20617;49.476;10.986;2022-08-19T04:52:59;97700.50;;;22.66;65.32
12879;BME280;20617;49.476;10.986;2022-08-19T04:55:05;97709.22;;;22.58;65.68
12879;BME280;20617;49.476;10.986;2022-08-19T04:57:13;97706.03;;;22.55;65.66
12879;BME280;20617;49.476;10.986;2022-08-19T04:59:18;97712.47;;;22.52;65.42
12879;BME280;20617;49.476;10.986;2022-08-19T05:01:25;97710.78;;;22.51;65.65
12879;BME280;20617;49.476;10.986;2022-08-19T05:03:32;97708.53;;;22.56;65.97
12879;BME280;20617;49.476;10.986;2022-08-19T05:05:41;97705.56;;;22.59;65.81
12879;BME280;20617;49.476;10.986;2022-08-19T05:07:46;97706.69;;;22.57;66.04
12879;BME280;20617;49.476;10.986;2022-08-19T05:09:51;97714.34;;;22.60;66.04
12879;BME280;20617;49.476;10.986;2022-08-19T05:11:59;97714.34;;;22.60;65.73
12879;BME280;20617;49.476;10.986;2022-08-19T05:14:08;97723.22;;;22.51;65.87
12879;BME280;20617;49.476;10.986;2022-08-19T05:16:15;97727.72;;;22.50;66.52
12879;BME280;20617;49.476;10.986;2022-08-19T05:18:20;97733.00;;;22.50;66.59
12879;BME280;20617;49.476;10.986;2022-08-19T05:20:38;97738.31;;;22.50;66.30
12879;BME280;20617;49.476;10.986;2022-08-19T05:22:55;97728.84;;;22.48;66.48
12879;BME280;20617;49.476;10.986;2022-08-19T05:25:02;97738.50;;;22.49;66.21
12879;BME280;20617;49.476;10.986;2022-08-19T05:27:14;97748.78;;;22.52;66.43
12879;BME280;20617;49.476;10.986;2022-08-19T05:29:21;97750.31;;;22.54;66.45
12879;BME280;20617;49.476;10.986;2022-08-19T05:31:32;97752.78;;;22.56;66.38
12879;BME280;20617;49.476;10.986;2022-08-19T05:33:42;97751.78;;;22.57;66.26
12879;BME280;20617;49.476;10.986;2022-08-19T05:35:47;97754.63;;;22.55;66.57
12879;BME280;20617;49.476;10.986;2022-08-19T05:37:52;97740.06;;;22.59;66.39
12879;BME280;20617;49.476;10.986;2022-08-19T05:40:00;97734.28;;;22.64;66.29
12879;BME280;20617;49.476;10.986;2022-08-19T05:42:07;97734.28;;;22.64;66.44
12879;BME280;20617;49.476;10.986;2022-08-19T05:44:13;97737.09;;;22.63;66.39
12879;BME280;20617;49.476;10.986;2022-08-19T05:46:21;97743.25;;;22.63;66.28
12879;BME280;20617;49.476;10.986;2022-08-19T05:48:29;97736.63;;;22.67;66.38
12879;BME280;20617;49.476;10.986;2022-08-19T05:50:35;97738.81;;;22.72;66.25
12879;BME280;20617;49.476;10.986;2022-08-19T05:52:40;97744.66;;;22.75;66.39
12879;BME280;20617;49.476;10.986;2022-08-19T05:54:51;97739.19;;;22.77;66.29
12879;BME280;20617;49.476;10.986;2022-08-19T05:56:57;97754.06;;;22.88;66.01
12879;BME280;20617;49.476;10.986;2022-08-19T05:59:02;97747.44;;;22.92;65.48
12879;BME280;20617;49.476;10.986;2022-08-19T06:01:14;97740.69;;;22.97;65.73
12879;BME280;20617;49.476;10.986;2022-08-19T06:03:22;97739.56;;;23.00;65.34
12879;BME280;20617;49.476;10.986;2022-08-19T06:05:27;97731.66;;;23.08;65.11
12879;BME280;20617;49.476;10.986;2022-08-19T06:07:32;97737.09;;;23.07;64.87
12879;BME280;20617;49.476;10.986;2022-08-19T06:09:37;97728.81;;;23.01;64.62
12879;BME280;20617;49.476;10.986;2022-08-19T06:11:46;97729.16;;;23.07;64.64
12879;BME280;20617;49.476;10.986;2022-08-19T06:13:56;97726.78;;;23.21;64.10
12879;BME280;20617;49.476;10.986;2022-08-19T06:16:01;97730.50;;;23.37;63.96
12879;BME280;20617;49.476;10.986;2022-08-19T06:18:06;97733.53;;;23.50;63.42
12879;BME280;20617;49.476;10.986;2022-08-19T06:20:14;97745.03;;;23.59;62.85
12879;BME280;20617;49.476;10.986;2022-08-19T06:22:43;97733.94;;;23.63;62.80
12879;BME280;20617;49.476;10.986;2022-08-19T06:24:48;97736.03;;;23.78;62.23
12879;BME280;20617;49.476;10.986;2022-08-19T06:26:56;97732.06;;;23.90;62.10
12879;BME280;20617;49.476;10.986;2022-08-19T06:29:04;97729.25;;;23.91;61.91
12879;BME280;20617;49.476;10.986;2022-08-19T06:31:09;97726.09;;;23.96;61.76
12879;BME280;20617;49.476;10.986;2022-08-19T06:33:15;97725.97;;;23.98;61.68
12879;BME280;20617;49.476;10.986;2022-08-19T06:35:23;97725.44;;;23.86;61.91
12879;BME280;20617;49.476;10.986;2022-08-19T06:37:28;97720.22;;;23.76;62.53
12879;BME280;20617;49.476;10.986;2022-08-19T06:39:35;97723.88;;;23.75;62.48
12879;BME280;20617;49.476;10.986;2022-08-19T06:41:42;97723.88;;;23.75;62.82
12879;BME280;20617;49.476;10.986;2022-08-19T06:43:53;97721.91;;;23.77;62.66
12879;BME280;20617;49.476;10.986;2022-08-19T06:45:58;97727.91;;;23.87;62.37
12879;BME280;20617;49.476;10.986;2022-08-19T06:48:07;97727.06;;;23.87;62.12
12879;BME280;20617;49.476;10.986;2022-08-19T06:50:12;97731.25;;;23.89;62.51
12879;BME280;20617;49.476;10.986;2022-08-19T06:52:20;97736.91;;;24.03;62.22
12879;BME280;20617;49.476;10.986;2022-08-19T06:54:27;97729.81;;;24.20;61.75
12879;BME280;20617;49.476;10.986;2022-08-19T06:56:38;97737.97;;;24.34;61.39
12879;BME280;20617;49.476;10.986;2022-08-19T06:58:43;97746.16;;;24.41;60.66
12879;BME280;20617;49.476;10.986;2022-08-19T07:00:48;97751.84;;;24.54;60.28
12879;BME280;20617;49.476;10.986;2022-08-19T07:02:53;97750.19;;;24.61;60.38
12879;BME280;20617;49.476;10.986;2022-08-19T07:05:05;97763.00;;;24.50;60.60
12879;BME280;20617;49.476;10.986;2022-08-19T07:07:13;97756.16;;;24.47;60.43
12879;BME280;20617;49.476;10.986;2022-08-19T07:09:25;97767.81;;;24.54;60.43
12879;BME280;20617;49.476;10.986;2022-08-19T07:11:31;97767.47;;;24.49;60.60
12879;BME280;20617;49.476;10.986;2022-08-19T07:13:36;97769.06;;;24.34;60.74
12879;BME280;20617;49.476;10.986;2022-08-19T07:15:41;97765.06;;;24.22;61.40
12879;BME280;20617;49.476;10.986;2022-08-19T07:17:48;97767.03;;;24.20;61.36
12879;BME280;20617;49.476;10.986;2022-08-19T07:19:53;97764.38;;;24.03;62.36
12879;BME280;20617;49.476;10.986;2022-08-19T07:22:07;97766.53;;;24.08;61.58
12879;BME280;20617;49.476;10.986;2022-08-19T07:24:14;97775.00;;;24.03;62.07
12879;BME280;20617;49.476;10.986;2022-08-19T07:26:26;97773.59;;;23.91;62.60
12879;BME280;20617;49.476;10.986;2022-08-19T07:28:32;97782.91;;;23.87;62.65
12879;BME280;20617;49.476;10.986;2022-08-19T07:30:52;97780.69;;;23.74;63.02
12879;BME280;20617;49.476;10.986;2022-08-19T07:32:57;97786.41;;;23.61;63.18
12879;BME280;20617;49.476;10.986;2022-08-19T07:35:05;97779.06;;;23.55;62.96
12879;BME280;20617;49.476;10.986;2022-08-19T07:37:11;97777.03;;;23.49;63.82
12879;BME280;20617;49.476;10.986;2022-08-19T07:39:17;97778.69;;;23.42;63.65
12879;BME280;20617;49.476;10.986;2022-08-19T07:41:25;97778.88;;;23.48;63.69
12879;BME280;20617;49.476;10.986;2022-08-19T07:43:33;97789.31;;;23.42;63.61
12879;BME280;20617;49.476;10.986;2022-08-19T07:45:38;97790.69;;;23.54;63.40
12879;BME280;20617;49.476;10.986;2022-08-19T07:47:44;97799.03;;;23.59;63.55
12879;BME280;20617;49.476;10.986;2022-08-19T07:49:59;97794.69;;;23.58;63.81
12879;BME280;20617;49.476;10.986;2022-08-19T07:52:09;97799.31;;;23.48;64.63
12879;BME280;20617;49.476;10.986;2022-08-19T07:54:14;97797.47;;;23.48;64.83
12879;BME280;20617;49.476;10.986;2022-08-19T07:56:20;97792.16;;;23.48;64.90
12879;BME280;20617;49.476;10.986;2022-08-19T07:58:28;97799.13;;;23.49;64.23
12879;BME280;20617;49.476;10.986;2022-08-19T08:00:33;97802.28;;;23.53;64.55
12879;BME280;20617;49.476;10.986;2022-08-19T08:02:38;97793.72;;;23.59;64.35
12879;BME280;20617;49.476;10.986;2022-08-19T08:04:44;97793.72;;;23.59;64.45
12879;BME280;20617;49.476;10.986;2022-08-19T08:07:02;97787.78;;;23.65;64.22
12879;BME280;20617;49.476;10.986;2022-08-19T08:09:22;97795.75;;;23.65;63.63
12879;BME280;20617;49.476;10.986;2022-08-19T08:11:28;97786.41;;;23.61;63.67
12879;BME280;20617;49.476;10.986;2022-08-19T08:13:35;97780.16;;;23.70;63.56
12879;BME280;20617;49.476;10.986;2022-08-19T08:15:43;97772.09;;;23.80;62.94
12879;BME280;20617;49.476;10.986;2022-08-19T08:17:51;97773.13;;;23.95;62.42
12879;BME280;20617;49.476;10.986;2022-08-19T08:19:56;97770.97;;;23.99;61.62
12879;BME280;20617;49.476;10.986;2022-08-19T08:22:02;97775.66;;;24.05;61.76
12879;BME280;20617;49.476;10.986;2022-08-19T08:24:08;97778.19;;;24.15;61.40
12879;BME280;20617;49.476;10.986;2022-08-19T08:26:11;97781.19;;;24.12;61.27
12879;BME280;20617;49.476;10.986;2022-08-19T08:28:17;97790.91;;;23.95;61.41
12879;BME280;20617;49.476;10.986;2022-08-19T08:30:26;97791.28;;;24.00;61.31
12879;BME280;20617;49.476;10.986;2022-08-19T08:32:33;97778.19;;;23.72;62.14
12879;BME280;20617;49.476;10.986;2022-08-19T08:34:38;97772.19;;;23.70;62.31
12879;BME280;20617;49.476;10.986;2022-08-19T08:36:45;97761.56;;;23.70;62.51
12879;BME280;20617;49.476;10.986;2022-08-19T08:38:49;97757.31;;;23.86;62.21
12879;BME280;20617;49.476;10.986;2022-08-19T08:40:59;97750.34;;;23.93;61.41
12879;BME280;20617;49.476;10.986;2022-08-19T08:43:13;97757.53;;;24.01;61.66
12879;BME280;20617;49.476;10.986;2022-08-19T08:45:26;97763.03;;;24.07;61.48
12879;BME280;20617;49.476;10.986;2022-08-19T08:47:47;97760.44;;;24.32;60.63
12879;BME280;20617;49.476;10.986;2022-08-19T08:49:58;97767.25;;;24.34;60.42
12879;BME280;20617;49.476;10.986;2022-08-19T08:52:09;97773.06;;;24.30;60.20
12879;BME280;20617;49.476;10.986;2022-08-19T08:54:19;97774.91;;;24.29;60.22
12879;BME280;20617;49.476;10.986;2022-08-19T08:56:25;97774.25;;;24.35;59.79
12879;BME280;20617;49.476;10.986;2022-08-19T08:58:31;97773.09;;;24.46;59.59
12879;BME280;20617;49.476;10.986;2022-08-19T09:00:48;97782.78;;;24.47;59.15
12879;BME280;20617;49.476;10.986;2022-08-19T09:02:53;97779.06;;;24.40;59.14
12879;BME280;20617;49.476;10.986;2022-08-19T09:05:00;97777.56;;;24.37;59.37
12879;BME280;20617;49.476;10.986;2022-08-19T09:07:24;97789.38;;;24.35;59.66
12879;BME280;20617;49.476;10.986;2022-08-19T09:09:40;97780.03;;;24.14;60.03
12879;BME280;20617;49.476;10.986;2022-08-19T09:11:55;97784.03;;;24.27;59.72
12879;BME280;20617;49.476;10.986;2022-08-19T09:14:08;97784.22;;;24.33;59.61
12879;BME280;20617;49.476;10.986;2022-08-19T09:16:38;97786.53;;;24.36;59.85
12879;BME280;20617;49.476;10.986;2022-08-19T09:18:51;97789.38;;;24.35;59.39
12879;BME280;20617;49.476;10.986;2022-08-19T09:20:56;97786.03;;;24.33;59.55
12879;BME280;20617;49.476;10.986;2022-08-19T09:23:01;97785.53;;;24.37;59.60
12879;BME280;20617;49.476;10.986;2022-08-19T09:25:09;97784.47;;;24.06;60.48
12879;BME280;20617;49.476;10.986;2022-08-19T09:27:14;97786.59;;;24.02;60.88
12879;BME280;20617;49.476;10.986;2022-08-19T09:29:19;97790.31;;;24.09;60.57
12879;BME280;20617;49.476;10.986;2022-08-19T09:31:27;97787.44;;;23.94;60.83
12879;BME280;20617;49.476;10.986;2022-08-19T09:33:34;97792.09;;;24.01;60.95
12879;BME280;20617;49.476;10.986;2022-08-19T09:35:39;97784.44;;;23.98;60.40
12879;BME280;20617;49.476;10.986;2022-08-19T09:37:54;97794.59;;;24.02;60.73
12879;BME280;20617;49.476;10.986;2022-08-19T09:40:00;97797.59;;;24.07;60.67
12879;BME280;20617;49.476;10.986;2022-08-19T09:42:05;97797.56;;;23.99;61.04
12879;BME280;20617;49.476;10.986;2022-08-19T09:44:20;97796.75;;;23.99;60.56
12879;BME280;20617;49.476;10.986;2022-08-19T09:46:28;97799.63;;;23.79;61.43
12879;BME280;20617;49.476;10.986;2022-08-19T09:48:36;97785.75;;;23.85;60.98
12879;BME280;20617;49.476;10.986;2022-08-19T09:50:41;97787.38;;;23.86;61.19
12879;BME280;20617;49.476;10.986;2022-08-19T09:52:52;97781.34;;;23.76;61.25
12879;BME280;20617;49.476;10.986;2022-08-19T09:54:59;97782.28;;;23.67;61.86
12879;BME280;20617;49.476;10.986;2022-08-19T09:57:09;97782.34;;;23.75;61.70
12879;BME280;20617;49.476;10.986;2022-08-19T09:59:13;97779.56;;;23.77;61.68
12879;BME280;20617;49.476;10.986;2022-08-19T10:01:20;97779.22;;;23.80;61.60
12879;BME280;20617;49.476;10.986;2022-08-19T10:03:27;97789.50;;;23.75;62.00
12879;BME280;20617;49.476;10.986;2022-08-19T10:05:35;97787.72;;;23.83;61.64
12879;BME280;20617;49.476;10.986;2022-08-19T10:07:56;97785.28;;;23.98;61.33
12879;BME280;20617;49.476;10.986;2022-08-19T10:10:06;97790.44;;;24.08;60.83
12879;BME280;20617;49.476;10.986;2022-08-19T10:12:11;97790.31;;;24.09;60.74
12879;BME280;20617;49.476;10.986;2022-08-19T10:14:20;97788.28;;;24.11;60.29
12879;BME280;20617;49.476;10.986;2022-08-19T10:16:26;97793.31;;;24.14;60.53
12879;BME280;20617;49.476;10.986;2022-08-19T10:18:32;97796.28;;;24.03;60.36
12879;BME280;20617;49.476;10.986;2022-08-19T10:20:40;97793.44;;;24.05;60.66
12879;BME280;20617;49.476;10.986;2022-08-19T10:22:45;97792.09;;;24.01;60.66
12879;BME280;20617;49.476;10.986;2022-08-19T10:24:52;97793.25;;;23.98;60.83
12879;BME280;20617;49.476;10.986;2022-08-19T10:26:58;97800.72;;;23.94;60.86
12879;BME280;20617;49.476;10.986;2022-08-19T10:29:05;97796.38;;;23.93;61.03
12879;BME280;20617;49.476;10.986;2022-08-19T10:31:13;97805.53;;;23.99;60.63
12879;BME280;20617;49.476;10.986;2022-08-19T10:33:20;97804.69;;;23.90;61.13
12879;BME280;20617;49.476;10.986;2022-08-19T10:35:49;97798.91;;;23.95;60.72
12879;BME280;20617;49.476;10.986;2022-08-19T10:37:57;97797.25;;;24.02;60.55
12879;BME280;20617;49.476;10.986;2022-08-19T10:40:07;97800.94;;;24.09;60.19
12879;BME280;20617;49.476;10.986;2022-08-19T10:42:13;97799.28;;;24.16;59.92
12879;BME280;20617;49.476;10.986;2022-08-19T10:44:18;97802.44;;;24.12;60.08
12879;BME280;20617;49.476;10.986;2022-08-19T10:46:27;97801.09;;;24.08;60.21
12879;BME280;20617;49.476;10.986;2022-08-19T10:48:34;97804.03;;;23.97;60.18
12879;BME280;20617;49.476;10.986;2022-08-19T10:50:39;97805.91;;;24.04;60.22
12879;BME280;20617;49.476;10.986;2022-08-19T10:53:03;97804.25;;;24.11;59.62
12879;BME280;20617;49.476;10.986;2022-08-19T10:55:10;97805.63;;;24.15;59.54
12879;BME280;20617;49.476;10.986;2022-08-19T10:57:30;97796.75;;;23.99;60.08
12879;BME280;20617;49.476;10.986;2022-08-19T10:59:55;97793.78;;;24.10;59.79
12879;BME280;20617;49.476;10.986;2022-08-19T11:02:00;97795.28;;;24.12;59.94
12879;BME280;20617;49.476;10.986;2022-08-19T11:04:06;97799.13;;;24.18;59.60
12879;BME280;20617;49.476;10.986;2022-08-19T11:06:13;97796.78;;;24.07;59.63
12879;BME280;20617;49.476;10.986;2022-08-19T11:08:20;97796.22;;;23.95;60.12
12879;BME280;20617;49.476;10.986;2022-08-19T11:10:26;97802.56;;;23.94;60.51